sensor_id;sensor_type;location;lat;lon;timestamp;P1;durP1;ratioP1;P2;durP2;ratioP2
21634;SDS011;10979;48.306;9.830;2023-02-28T00:03:44;0.60;;;0.60;;
21634;SDS011;10979;48.306;9.830;2023-02-28T00:06:09;0.60;;;0.60;;
21634;SDS011;10979;48.306;9.830;2023-02-28T00:08:35;0.60;;;0.60;;
21634;SDS011;10979;48.306;9.830;2023-02-28T00:11:02;0.50;;;0.50;;
21634;SDS011;10979;48.306;9.830;2023-02-28T00:13:29;0.57;;;0.57;;
21634;SDS011;10979;48.306;9.830;2023-02-28T00:16:27;0.60;;;0.60;;
21634;SDS011;10979;48.306;9.830;2023-02-28T00:18:47;0.60;;;0.60;;
21634;SDS011;10979;48.306;9.830;2023-02-28T00:21:13;0.60;;;0.60;;
21634;SDS011;10979;48.306;9.830;2023-02-28T00:23:39;0.50;;;0.50;;
21634;SDS011;10979;48.306;9.830;2023-02-28T00:26:04;0.60;;;0.60;;
21634;SDS011;10979;48.306;9.830;2023-02-28T00:28:30;0.60;;;0.60;;
21634;SDS011;10979;48.306;9.830;2023-02-28T00:30:56;0.55;;;0.55;;
21634;SDS011;10979;48.306;9.830;2023-02-28T00:33:22;0.60;;;0.60;;
21634;SDS011;10979;48.306;9.830;2023-02-28T00:35:48;0.50;;;0.50;;
21634;SDS011;10979;48.306;9.830;2023-02-28T00:38:14;0.60;;;0.60;;
21634;SDS011;10979;48.306;9.830;2023-02-28T00:40:40;0.60;;;0.60;;
21634;SDS011;10979;48.306;9.830;2023-02-28T00:43:06;0.50;;;0.50;;
21634;SDS011;10979;48.306;9.830;2023-02-28T00:45:32;0.60;;;0.60;;
21634;SDS011;10979;48.306;9.830;2023-02-28T00:47:57;0.60;;;0.60;;
21634;SDS011;10979;48.306;9.830;2023-02-28T00:50:23;0.60;;;0.60;;
21634;SDS011;10979;48.306;9.830;2023-02-28T00:52:48;0.52;;;0.52;;
21634;SDS011;10979;48.306;9.830;2023-02-28T00:55:14;0.57;;;0.57;;
21634;SDS011;10979;48.306;9.830;2023-02-28T00:57:40;0.60;;;0.60;;
21634;SDS011;10979;48.306;9.830;2023-02-28T01:00:06;0.60;;;0.60;;
21634;SDS011;10979;48.306;9.830;2023-02-28T01:02:32;0.60;;;0.60;;
21634;SDS011;10979;48.306;9.830;2023-02-28T01:04:58;0.60;;;0.60;;
21634;SDS011;10979;48.306;9.830;2023-02-28T01:07:23;0.60;;;0.60;;
21634;SDS011;10979;48.306;9.830;2023-02-28T01:09:49;0.60;;;0.60;;
21634;SDS011;10979;48.306;9.830;2023-02-28T01:12:15;0.60;;;0.60;;
21634;SDS011;10979;48.306;9.830;2023-02-28T01:14:40;0.60;;;0.60;;
21634;SDS011;10979;48.306;9.830;2023-02-28T01:17:07;0.50;;;0.50;;
21634;SDS011;10979;48.306;9.830;2023-02-28T01:19:32;0.60;;;0.60;;
21634;SDS011;10979;48.306;9.830;2023-02-28T01:22:02;0.60;;;0.60;;
21634;SDS011;10979;48.306;9.830;2023-02-28T01:24:29;0.60;;;0.60;;
21634;SDS011;10979;48.306;9.830;2023-02-28T01:26:55;0.60;;;0.60;;
21634;SDS011;10979;48.306;9.830;2023-02-28T01:29:20;0.60;;;0.60;;
21634;SDS011;10979;48.306;9.830;2023-02-28T01:31:46;0.60;;;0.60;;
21634;SDS011;10979;48.306;9.830;2023-02-28T01:34:12;0.50;;;0.50;;
21634;SDS011;10979;48.306;9.830;2023-02-28T01:36:37;0.50;;;0.50;;
21634;SDS011;10979;48.306;9.830;2023-02-28T01:39:03;0.60;;;0.60;;
21634;SDS011;10979;48.306;9.830;2023-02-28T01:41:29;0.50;;;0.50;;
21634;SDS011;10979;48.306;9.830;2023-02-28T01:43:59;0.50;;;0.50;;
21634;SDS011;10979;48.306;9.830;2023-02-28T01:46:34;0.50;;;0.50;;
21634;SDS011;10979;48.306;9.830;2023-02-28T01:49:02;0.52;;;0.52;;
21634;SDS011;10979;48.306;9.830;2023-02-28T01:51:37;0.60;;;0.60;;
21634;SDS011;10979;48.306;9.830;2023-02-28T01:54:11;0.60;;;0.60;;
21634;SDS011;10979;48.306;9.830;2023-02-28T01:56:46;0.60;;;0.60;;
21634;SDS011;10979;48.306;9.830;2023-02-28T01:59:19;0.60;;;0.60;;
21634;SDS011;10979;48.306;9.830;2023-02-28T02:01:52;0.50;;;0.50;;
21634;SDS011;10979;48.306;9.830;2023-02-28T02:04:18;0.60;;;0.60;;
21634;SDS011;10979;48.306;9.830;2023-02-28T02:06:46;0.50;;;0.50;;
21634;SDS011;10979;48.306;9.830;2023-02-28T02:09:13;0.50;;;0.50;;
21634;SDS011;10979;48.306;9.830;2023-02-28T02:11:39;0.60;;;0.60;;
21634;SDS011;10979;48.306;9.830;2023-02-28T02:14:22;0.50;;;0.50;;
21634;SDS011;10979;48.306;9.830;2023-02-28T02:25:25;0.60;;;0.60;;
21634;SDS011;10979;48.306;9.830;2023-02-28T02:28:08;0.50;;;0.50;;
21634;SDS011;10979;48.306;9.830;2023-02-28T02:36:33;0.60;;;0.60;;
21634;SDS011;10979;48.306;9.830;2023-02-28T02:39:06;0.50;;;0.50;;
21634;SDS011;10979;48.306;9.830;2023-02-28T02:41:45;0.50;;;0.50;;
21634;SDS011;10979;48.306;9.830;2023-02-28T02:44:36;0.50;;;0.50;;
21634;SDS011;10979;48.306;9.830;2023-02-28T02:47:10;0.60;;;0.60;;
21634;SDS011;10979;48.306;9.830;2023-02-28T02:49:40;0.50;;;0.50;;
21634;SDS011;10979;48.306;9.830;2023-02-28T02:52:12;0.60;;;0.60;;
21634;SDS011;10979;48.306;9.830;2023-02-28T02:54:42;0.60;;;0.60;;
21634;SDS011;10979;48.306;9.830;2023-02-28T02:57:15;0.60;;;0.60;;
21634;SDS011;10979;48.306;9.830;2023-02-28T02:59:46;0.50;;;0.50;;
21634;SDS011;10979;48.306;9.830;2023-02-28T03:02:14;0.50;;;0.50;;
21634;SDS011;10979;48.306;9.830;2023-02-28T03:04:42;0.50;;;0.50;;
21634;SDS011;10979;48.306;9.830;2023-02-28T03:07:11;0.52;;;0.52;;
21634;SDS011;10979;48.306;9.830;2023-02-28T03:09:36;0.50;;;0.50;;
21634;SDS011;10979;48.306;9.830;2023-02-28T03:12:02;0.50;;;0.50;;
21634;SDS011;10979;48.306;9.830;2023-02-28T03:25:11;0.60;;;0.60;;
21634;SDS011;10979;48.306;9.830;2023-02-28T03:30:36;0.57;;;0.57;;
21634;SDS011;10979;48.306;9.830;2023-02-28T03:33:14;0.60;;;0.60;;
21634;SDS011;10979;48.306;9.830;2023-02-28T03:35:56;0.60;;;0.60;;
21634;SDS011;10979;48.306;9.830;2023-02-28T03:38:41;0.60;;;0.60;;
21634;SDS011;10979;48.306;9.830;2023-02-28T03:41:16;0.50;;;0.50;;
21634;SDS011;10979;48.306;9.830;2023-02-28T03:43:46;0.60;;;0.60;;
21634;SDS011;10979;48.306;9.830;2023-02-28T03:46:18;0.60;;;0.60;;
21634;SDS011;10979;48.306;9.830;2023-02-28T03:48:55;0.60;;;0.60;;
21634;SDS011;10979;48.306;9.830;2023-02-28T03:51:26;0.60;;;0.60;;
21634;SDS011;10979;48.306;9.830;2023-02-28T03:53:54;0.52;;;0.52;;
21634;SDS011;10979;48.306;9.830;2023-02-28T03:56:27;0.60;;;0.60;;
21634;SDS011;10979;48.306;9.830;2023-02-28T03:59:19;0.50;;;0.50;;
21634;SDS011;10979;48.306;9.830;2023-02-28T04:01:52;0.60;;;0.60;;
21634;SDS011;10979;48.306;9.830;2023-02-28T04:04:18;0.50;;;0.50;;
21634;SDS011;10979;48.306;9.830;2023-02-28T04:06:44;0.60;;;0.60;;
21634;SDS011;10979;48.306;9.830;2023-02-28T04:09:11;0.60;;;0.60;;
21634;SDS011;10979;48.306;9.830;2023-02-28T04:11:39;0.50;;;0.50;;
21634;SDS011;10979;48.306;9.830;2023-02-28T04:14:07;0.60;;;0.60;;
21634;SDS011;10979;48.306;9.830;2023-02-28T04:16:36;0.50;;;0.50;;
21634;SDS011;10979;48.306;9.830;2023-02-28T04:19:04;0.60;;;0.60;;
21634;SDS011;10979;48.306;9.830;2023-02-28T04:21:34;0.60;;;0.60;;
21634;SDS011;10979;48.306;9.830;2023-02-28T04:24:05;0.50;;;0.50;;
21634;SDS011;10979;48.306;9.830;2023-02-28T04:26:35;0.50;;;0.50;;
21634;SDS011;10979;48.306;9.830;2023-02-28T04:29:02;0.60;;;0.60;;
21634;SDS011;10979;48.306;9.830;2023-02-28T04:31:29;0.60;;;0.60;;
21634;SDS011;10979;48.306;9.830;2023-02-28T04:33:55;0.60;;;0.60;;
21634;SDS011;10979;48.306;9.830;2023-02-28T04:36:21;0.60;;;0.60;;
21634;SDS011;10979;48.306;9.830;2023-02-28T04:38:48;0.50;;;0.50;;
21634;SDS011;10979;48.306;9.830;2023-02-28T04:41:14;0.60;;;0.60;;
21634;SDS011;10979;48.306;9.830;2023-02-28T04:43:41;0.60;;;0.60;;
21634;SDS011;10979;48.306;9.830;2023-02-28T04:46:07;0.60;;;0.60;;
21634;SDS011;10979;48.306;9.830;2023-02-28T04:48:34;0.52;;;0.52;;
21634;SDS011;10979;48.306;9.830;2023-02-28T04:51:01;0.60;;;0.60;;
21634;SDS011;10979;48.306;9.830;2023-02-28T04:53:29;0.50;;;0.50;;
21634;SDS011;10979;48.306;9.830;2023-02-28T04:55:55;0.60;;;0.60;;
21634;SDS011;10979;48.306;9.830;2023-02-28T04:58:21;0.50;;;0.50;;
21634;SDS011;10979;48.306;9.830;2023-02-28T05:00:48;0.50;;;0.50;;
21634;SDS011;10979;48.306;9.830;2023-02-28T05:03:14;0.60;;;0.60;;
21634;SDS011;10979;48.306;9.830;2023-02-28T05:05:40;0.50;;;0.50;;
21634;SDS011;10979;48.306;9.830;2023-02-28T05:08:05;0.60;;;0.60;;
21634;SDS011;10979;48.306;9.830;2023-02-28T05:10:31;0.60;;;0.60;;
21634;SDS011;10979;48.306;9.830;2023-02-28T05:12:57;0.50;;;0.50;;
21634;SDS011;10979;48.306;9.830;2023-02-28T05:15:23;0.50;;;0.50;;
21634;SDS011;10979;48.306;9.830;2023-02-28T05:17:49;0.60;;;0.60;;
21634;SDS011;10979;48.306;9.830;2023-02-28T05:20:15;0.60;;;0.60;;
21634;SDS011;10979;48.306;9.830;2023-02-28T05:22:41;0.60;;;0.60;;
21634;SDS011;10979;48.306;9.830;2023-02-28T05:25:08;0.60;;;0.60;;
21634;SDS011;10979;48.306;9.830;2023-02-28T05:27:37;0.60;;;0.60;;
21634;SDS011;10979;48.306;9.830;2023-02-28T05:30:03;0.60;;;0.60;;
21634;SDS011;10979;48.306;9.830;2023-02-28T05:32:29;0.50;;;0.50;;
21634;SDS011;10979;48.306;9.830;2023-02-28T05:34:55;0.50;;;0.50;;
21634;SDS011;10979;48.306;9.830;2023-02-28T05:37:20;0.50;;;0.50;;
21634;SDS011;10979;48.306;9.830;2023-02-28T05:39:46;0.50;;;0.50;;
21634;SDS011;10979;48.306;9.830;2023-02-28T05:42:11;0.60;;;0.60;;
21634;SDS011;10979;48.306;9.830;2023-02-28T05:44:37;0.60;;;0.60;;
21634;SDS011;10979;48.306;9.830;2023-02-28T05:47:02;0.60;;;0.60;;
21634;SDS011;10979;48.306;9.830;2023-02-28T05:49:28;0.60;;;0.60;;
21634;SDS011;10979;48.306;9.830;2023-02-28T05:51:54;0.60;;;0.60;;
21634;SDS011;10979;48.306;9.830;2023-02-28T05:54:19;0.57;;;0.57;;
21634;SDS011;10979;48.306;9.830;2023-02-28T05:56:45;0.50;;;0.50;;
21634;SDS011;10979;48.306;9.830;2023-02-28T05:59:11;0.60;;;0.60;;
21634;SDS011;10979;48.306;9.830;2023-02-28T06:04:13;0.60;;;0.60;;
21634;SDS011;10979;48.306;9.830;2023-02-28T06:06:43;0.50;;;0.50;;
21634;SDS011;10979;48.306;9.830;2023-02-28T06:09:09;0.50;;;0.50;;
21634;SDS011;10979;48.306;9.830;2023-02-28T06:11:35;0.50;;;0.50;;
21634;SDS011;10979;48.306;9.830;2023-02-28T06:14:01;0.50;;;0.50;;
21634;SDS011;10979;48.306;9.830;2023-02-28T06:16:28;0.55;;;0.55;;
21634;SDS011;10979;48.306;9.830;2023-02-28T06:18:56;0.60;;;0.60;;
21634;SDS011;10979;48.306;9.830;2023-02-28T06:21:23;0.60;;;0.60;;
21634;SDS011;10979;48.306;9.830;2023-02-28T06:23:49;0.60;;;0.60;;
21634;SDS011;10979;48.306;9.830;2023-02-28T06:26:15;0.60;;;0.60;;
21634;SDS011;10979;48.306;9.830;2023-02-28T06:28:40;0.60;;;0.60;;
21634;SDS011;10979;48.306;9.830;2023-02-28T06:31:07;0.50;;;0.50;;
21634;SDS011;10979;48.306;9.830;2023-02-28T06:33:37;0.60;;;0.60;;
21634;SDS011;10979;48.306;9.830;2023-02-28T06:36:04;0.60;;;0.60;;
21634;SDS011;10979;48.306;9.830;2023-02-28T06:38:30;0.50;;;0.50;;
21634;SDS011;10979;48.306;9.830;2023-02-28T06:40:58;0.60;;;0.60;;
21634;SDS011;10979;48.306;9.830;2023-02-28T06:43:24;0.50;;;0.50;;
21634;SDS011;10979;48.306;9.830;2023-02-28T06:45:55;0.50;;;0.50;;
21634;SDS011;10979;48.306;9.830;2023-02-28T06:48:22;0.50;;;0.50;;
21634;SDS011;10979;48.306;9.830;2023-02-28T06:50:48;0.60;;;0.60;;
21634;SDS011;10979;48.306;9.830;2023-02-28T06:53:14;0.60;;;0.60;;
21634;SDS011;10979;48.306;9.830;2023-02-28T06:55:40;0.60;;;0.60;;
21634;SDS011;10979;48.306;9.830;2023-02-28T06:58:06;0.60;;;0.60;;
21634;SDS011;10979;48.306;9.830;2023-02-28T07:00:40;0.50;;;0.50;;
21634;SDS011;10979;48.306;9.830;2023-02-28T07:03:07;0.60;;;0.60;;
21634;SDS011;10979;48.306;9.830;2023-02-28T07:05:34;0.60;;;0.60;;
21634;SDS011;10979;48.306;9.830;2023-02-28T07:08:00;0.60;;;0.60;;
21634;SDS011;10979;48.306;9.830;2023-02-28T07:10:26;0.50;;;0.50;;
21634;SDS011;10979;48.306;9.830;2023-02-28T07:12:52;0.50;;;0.50;;
21634;SDS011;10979;48.306;9.830;2023-02-28T07:15:17;0.60;;;0.60;;
21634;SDS011;10979;48.306;9.830;2023-02-28T07:17:43;0.60;;;0.60;;
21634;SDS011;10979;48.306;9.830;2023-02-28T07:20:09;0.60;;;0.60;;
21634;SDS011;10979;48.306;9.830;2023-02-28T07:22:34;0.50;;;0.50;;
21634;SDS011;10979;48.306;9.830;2023-02-28T07:25:00;0.50;;;0.50;;
21634;SDS011;10979;48.306;9.830;2023-02-28T07:27:26;0.60;;;0.60;;
21634;SDS011;10979;48.306;9.830;2023-02-28T07:29:51;0.60;;;0.60;;
21634;SDS011;10979;48.306;9.830;2023-02-28T07:32:18;0.50;;;0.50;;
21634;SDS011;10979;48.306;9.830;2023-02-28T07:34:44;0.50;;;0.50;;
21634;SDS011;10979;48.306;9.830;2023-02-28T07:37:10;0.60;;;0.60;;
21634;SDS011;10979;48.306;9.830;2023-02-28T07:39:36;0.50;;;0.50;;
21634;SDS011;10979;48.306;9.830;2023-02-28T07:42:04;0.52;;;0.52;;
21634;SDS011;10979;48.306;9.830;2023-02-28T07:44:31;0.60;;;0.60;;
21634;SDS011;10979;48.306;9.830;2023-02-28T07:46:57;0.50;;;0.50;;
21634;SDS011;10979;48.306;9.830;2023-02-28T07:49:23;0.60;;;0.60;;
21634;SDS011;10979;48.306;9.830;2023-02-28T07:51:48;0.50;;;0.50;;
21634;SDS011;10979;48.306;9.830;2023-02-28T07:54:14;0.55;;;0.55;;
21634;SDS011;10979;48.306;9.830;2023-02-28T07:56:39;0.60;;;0.60;;
21634;SDS011;10979;48.306;9.830;2023-02-28T07:59:05;0.57;;;0.57;;
21634;SDS011;10979;48.306;9.830;2023-02-28T08:01:30;0.50;;;0.50;;
21634;SDS011;10979;48.306;9.830;2023-02-28T08:03:56;0.50;;;0.50;;
21634;SDS011;10979;48.306;9.830;2023-02-28T08:06:22;0.60;;;0.60;;
21634;SDS011;10979;48.306;9.830;2023-02-28T08:08:49;0.50;;;0.50;;
21634;SDS011;10979;48.306;9.830;2023-02-28T08:11:15;0.50;;;0.50;;
21634;SDS011;10979;48.306;9.830;2023-02-28T08:13:42;0.60;;;0.60;;
21634;SDS011;10979;48.306;9.830;2023-02-28T08:16:09;0.60;;;0.60;;
21634;SDS011;10979;48.306;9.830;2023-02-28T08:18:36;0.50;;;0.50;;
21634;SDS011;10979;48.306;9.830;2023-02-28T08:21:10;0.60;;;0.60;;
21634;SDS011;10979;48.306;9.830;2023-02-28T08:23:36;0.50;;;0.50;;
21634;SDS011;10979;48.306;9.830;2023-02-28T08:26:02;0.50;;;0.50;;
21634;SDS011;10979;48.306;9.830;2023-02-28T08:28:28;0.50;;;0.50;;
21634;SDS011;10979;48.306;9.830;2023-02-28T08:30:54;0.50;;;0.50;;
21634;SDS011;10979;48.306;9.830;2023-02-28T08:33:20;0.50;;;0.50;;
21634;SDS011;10979;48.306;9.830;2023-02-28T08:35:46;0.50;;;0.50;;
21634;SDS011;10979;48.306;9.830;2023-02-28T08:38:11;0.50;;;0.50;;
21634;SDS011;10979;48.306;9.830;2023-02-28T08:40:37;0.50;;;0.50;;
21634;SDS011;10979;48.306;9.830;2023-02-28T08:43:02;0.50;;;0.50;;
21634;SDS011;10979;48.306;9.830;2023-02-28T08:45:28;0.50;;;0.50;;
21634;SDS011;10979;48.306;9.830;2023-02-28T08:47:54;0.60;;;0.60;;
21634;SDS011;10979;48.306;9.830;2023-02-28T08:50:20;0.55;;;0.55;;
21634;SDS011;10979;48.306;9.830;2023-02-28T08:52:46;0.50;;;0.50;;
21634;SDS011;10979;48.306;9.830;2023-02-28T08:55:12;0.50;;;0.50;;
21634;SDS011;10979;48.306;9.830;2023-02-28T08:57:37;0.60;;;0.60;;
21634;SDS011;10979;48.306;9.830;2023-02-28T09:00:03;0.50;;;0.50;;
21634;SDS011;10979;48.306;9.830;2023-02-28T09:02:29;0.60;;;0.60;;
21634;SDS011;10979;48.306;9.830;2023-02-28T09:04:56;0.50;;;0.50;;
21634;SDS011;10979;48.306;9.830;2023-02-28T09:07:22;0.50;;;0.50;;
21634;SDS011;10979;48.306;9.830;2023-02-28T09:09:47;0.50;;;0.50;;
21634;SDS011;10979;48.306;9.830;2023-02-28T09:12:20;0.60;;;0.60;;
21634;SDS011;10979;48.306;9.830;2023-02-28T09:14:50;0.60;;;0.60;;
21634;SDS011;10979;48.306;9.830;2023-02-28T09:17:16;0.60;;;0.60;;
21634;SDS011;10979;48.306;9.830;2023-02-28T09:19:41;0.60;;;0.60;;
21634;SDS011;10979;48.306;9.830;2023-02-28T09:22:07;0.50;;;0.50;;
21634;SDS011;10979;48.306;9.830;2023-02-28T09:24:35;0.50;;;0.50;;
21634;SDS011;10979;48.306;9.830;2023-02-28T09:27:02;0.50;;;0.50;;
21634;SDS011;10979;48.306;9.830;2023-02-28T09:29:28;0.60;;;0.60;;
21634;SDS011;10979;48.306;9.830;2023-02-28T09:31:53;0.50;;;0.50;;
21634;SDS011;10979;48.306;9.830;2023-02-28T09:34:19;0.50;;;0.50;;
21634;SDS011;10979;48.306;9.830;2023-02-28T09:36:45;0.50;;;0.50;;
21634;SDS011;10979;48.306;9.830;2023-02-28T09:39:10;0.55;;;0.55;;
21634;SDS011;10979;48.306;9.830;2023-02-28T09:41:38;0.50;;;0.50;;
21634;SDS011;10979;48.306;9.830;2023-02-28T09:44:13;0.50;;;0.50;;
21634;SDS011;10979;48.306;9.830;2023-02-28T09:46:53;0.50;;;0.50;;
21634;SDS011;10979;48.306;9.830;2023-02-28T09:49:28;0.50;;;0.50;;
21634;SDS011;10979;48.306;9.830;2023-02-28T09:52:01;0.50;;;0.50;;
21634;SDS011;10979;48.306;9.830;2023-02-28T09:54:30;0.50;;;0.50;;
21634;SDS011;10979;48.306;9.830;2023-02-28T10:05:20;0.60;;;0.60;;
21634;SDS011;10979;48.306;9.830;2023-02-28T10:10:39;0.50;;;0.50;;
21634;SDS011;10979;48.306;9.830;2023-02-28T10:13:19;0.50;;;0.50;;
21634;SDS011;10979;48.306;9.830;2023-02-28T10:15:53;0.60;;;0.60;;
21634;SDS011;10979;48.306;9.830;2023-02-28T10:18:24;0.50;;;0.50;;
21634;SDS011;10979;48.306;9.830;2023-02-28T10:21:02;0.50;;;0.50;;
21634;SDS011;10979;48.306;9.830;2023-02-28T10:23:30;0.50;;;0.50;;
21634;SDS011;10979;48.306;9.830;2023-02-28T10:26:01;0.50;;;0.50;;
21634;SDS011;10979;48.306;9.830;2023-02-28T10:28:44;0.50;;;0.50;;
21634;SDS011;10979;48.306;9.830;2023-02-28T10:31:11;0.50;;;0.50;;
21634;SDS011;10979;48.306;9.830;2023-02-28T10:33:42;0.50;;;0.50;;
21634;SDS011;10979;48.306;9.830;2023-02-28T10:36:08;0.50;;;0.50;;
21634;SDS011;10979;48.306;9.830;2023-02-28T10:38:41;0.50;;;0.50;;
21634;SDS011;10979;48.306;9.830;2023-02-28T10:43:35;0.50;;;0.50;;
21634;SDS011;10979;48.306;9.830;2023-02-28T10:46:04;0.50;;;0.50;;
21634;SDS011;10979;48.306;9.830;2023-02-28T10:48:38;0.50;;;0.50;;
21634;SDS011;10979;48.306;9.830;2023-02-28T10:51:18;0.50;;;0.50;;
21634;SDS011;10979;48.306;9.830;2023-02-28T11:01:35;0.50;;;0.50;;
21634;SDS011;10979;48.306;9.830;2023-02-28T11:04:16;0.50;;;0.50;;
21634;SDS011;10979;48.306;9.830;2023-02-28T11:06:43;0.50;;;0.50;;
21634;SDS011;10979;48.306;9.830;2023-02-28T11:11:55;0.50;;;0.50;;
21634;SDS011;10979;48.306;9.830;2023-02-28T11:14:25;0.50;;;0.50;;
21634;SDS011;10979;48.306;9.830;2023-02-28T11:16:53;0.50;;;0.50;;
21634;SDS011;10979;48.306;9.830;2023-02-28T11:19:38;0.50;;;0.50;;
21634;SDS011;10979;48.306;9.830;2023-02-28T11:22:08;0.50;;;0.50;;
21634;SDS011;10979;48.306;9.830;2023-02-28T11:24:42;0.50;;;0.50;;
21634;SDS011;10979;48.306;9.830;2023-02-28T11:30:33;0.50;;;0.50;;
21634;SDS011;10979;48.306;9.830;2023-02-28T11:36:03;0.50;;;0.50;;
21634;SDS011;10979;48.306;9.830;2023-02-28T11:38:34;0.50;;;0.50;;
21634;SDS011;10979;48.306;9.830;2023-02-28T11:41:05;0.50;;;0.50;;
21634;SDS011;10979;48.306;9.830;2023-02-28T11:43:49;0.50;;;0.50;;
21634;SDS011;10979;48.306;9.830;2023-02-28T11:46:47;0.43;;;0.43;;
21634;SDS011;10979;48.306;9.830;2023-02-28T11:49:30;0.47;;;0.47;;
21634;SDS011;10979;48.306;9.830;2023-02-28T11:52:20;0.50;;;0.50;;
21634;SDS011;10979;48.306;9.830;2023-02-28T11:55:04;0.50;;;0.50;;
21634;SDS011;10979;48.306;9.830;2023-02-28T12:00:49;0.50;;;0.50;;
21634;SDS011;10979;48.306;9.830;2023-02-28T12:06:24;0.50;;;0.50;;
21634;SDS011;10979;48.306;9.830;2023-02-28T12:11:55;0.50;;;0.50;;
21634;SDS011;10979;48.306;9.830;2023-02-28T12:20:21;0.47;;;0.47;;
21634;SDS011;10979;48.306;9.830;2023-02-28T12:23:01;0.43;;;0.43;;
21634;SDS011;10979;48.306;9.830;2023-02-28T12:28:49;0.45;;;0.45;;
21634;SDS011;10979;48.306;9.830;2023-02-28T12:33:56;0.40;;;0.40;;
21634;SDS011;10979;48.306;9.830;2023-02-28T12:36:27;0.40;;;0.40;;
21634;SDS011;10979;48.306;9.830;2023-02-28T12:38:56;0.43;;;0.43;;
21634;SDS011;10979;48.306;9.830;2023-02-28T12:44:43;0.40;;;0.40;;
21634;SDS011;10979;48.306;9.830;2023-02-28T12:47:17;0.50;;;0.50;;
21634;SDS011;10979;48.306;9.830;2023-02-28T12:52:23;0.40;;;0.40;;
21634;SDS011;10979;48.306;9.830;2023-02-28T12:56:01;0.40;;;0.40;;
21634;SDS011;10979;48.306;9.830;2023-02-28T13:09:37;0.40;;;0.40;;
21634;SDS011;10979;48.306;9.830;2023-02-28T13:12:14;0.40;;;0.40;;
21634;SDS011;10979;48.306;9.830;2023-02-28T13:14:41;0.40;;;0.40;;
21634;SDS011;10979;48.306;9.830;2023-02-28T13:19:40;0.40;;;0.40;;
21634;SDS011;10979;48.306;9.830;2023-02-28T13:22:19;0.40;;;0.40;;
21634;SDS011;10979;48.306;9.830;2023-02-28T13:24:46;0.40;;;0.40;;
21634;SDS011;10979;48.306;9.830;2023-02-28T13:29:49;0.40;;;0.40;;
21634;SDS011;10979;48.306;9.830;2023-02-28T13:32:19;0.40;;;0.40;;
21634;SDS011;10979;48.306;9.830;2023-02-28T13:39:54;0.40;;;0.40;;
21634;SDS011;10979;48.306;9.830;2023-02-28T13:52:55;0.40;;;0.40;;
21634;SDS011;10979;48.306;9.830;2023-02-28T13:55:45;0.40;;;0.40;;
21634;SDS011;10979;48.306;9.830;2023-02-28T14:01:08;0.40;;;0.40;;
21634;SDS011;10979;48.306;9.830;2023-02-28T14:06:51;0.40;;;0.40;;
21634;SDS011;10979;48.306;9.830;2023-02-28T14:11:53;0.40;;;0.40;;
21634;SDS011;10979;48.306;9.830;2023-02-28T14:16:59;0.40;;;0.40;;
21634;SDS011;10979;48.306;9.830;2023-02-28T14:19:27;0.40;;;0.40;;
21634;SDS011;10979;48.306;9.830;2023-02-28T14:30:12;0.40;;;0.40;;
21634;SDS011;10979;48.306;9.830;2023-02-28T14:32:51;0.40;;;0.40;;
21634;SDS011;10979;48.306;9.830;2023-02-28T14:38:13;0.40;;;0.40;;
21634;SDS011;10979;48.306;9.830;2023-02-28T14:40:46;0.40;;;0.40;;
21634;SDS011;10979;48.306;9.830;2023-02-28T14:43:24;0.40;;;0.40;;
21634;SDS011;10979;48.306;9.830;2023-02-28T14:45:52;0.40;;;0.40;;
21634;SDS011;10979;48.306;9.830;2023-02-28T14:48:22;0.40;;;0.40;;
21634;SDS011;10979;48.306;9.830;2023-02-28T14:50:49;0.40;;;0.40;;
21634;SDS011;10979;48.306;9.830;2023-02-28T14:53:18;0.40;;;0.40;;
21634;SDS011;10979;48.306;9.830;2023-02-28T14:55:46;0.40;;;0.40;;
21634;SDS011;10979;48.306;9.830;2023-02-28T15:00:53;0.40;;;0.40;;
21634;SDS011;10979;48.306;9.830;2023-02-28T15:06:00;0.40;;;0.40;;
21634;SDS011;10979;48.306;9.830;2023-02-28T15:08:30;0.40;;;0.40;;
21634;SDS011;10979;48.306;9.830;2023-02-28T15:13:38;0.40;;;0.40;;
21634;SDS011;10979;48.306;9.830;2023-02-28T15:16:13;0.40;;;0.40;;
21634;SDS011;10979;48.306;9.830;2023-02-28T15:19:00;0.40;;;0.40;;
21634;SDS011;10979;48.306;9.830;2023-02-28T15:21:30;0.40;;;0.40;;
21634;SDS011;10979;48.306;9.830;2023-02-28T15:24:11;0.40;;;0.40;;
21634;SDS011;10979;48.306;9.830;2023-02-28T15:26:39;0.40;;;0.40;;
21634;SDS011;10979;48.306;9.830;2023-02-28T15:29:17;0.40;;;0.40;;
21634;SDS011;10979;48.306;9.830;2023-02-28T15:31:47;0.40;;;0.40;;
21634;SDS011;10979;48.306;9.830;2023-02-28T15:34:39;0.40;;;0.40;;
21634;SDS011;10979;48.306;9.830;2023-02-28T15:37:25;0.40;;;0.40;;
21634;SDS011;10979;48.306;9.830;2023-02-28T15:39:52;0.40;;;0.40;;
21634;SDS011;10979;48.306;9.830;2023-02-28T15:42:19;0.40;;;0.40;;
21634;SDS011;10979;48.306;9.830;2023-02-28T15:44:46;0.40;;;0.40;;
21634;SDS011;10979;48.306;9.830;2023-02-28T15:47:19;0.40;;;0.40;;
21634;SDS011;10979;48.306;9.830;2023-02-28T15:50:10;0.40;;;0.40;;
21634;SDS011;10979;48.306;9.830;2023-02-28T15:52:38;0.40;;;0.40;;
21634;SDS011;10979;48.306;9.830;2023-02-28T15:55:10;0.40;;;0.40;;
21634;SDS011;10979;48.306;9.830;2023-02-28T15:57:38;0.40;;;0.40;;
21634;SDS011;10979;48.306;9.830;2023-02-28T16:00:06;0.40;;;0.40;;
21634;SDS011;10979;48.306;9.830;2023-02-28T16:02:41;0.40;;;0.40;;
21634;SDS011;10979;48.306;9.830;2023-02-28T16:07:32;0.40;;;0.40;;
21634;SDS011;10979;48.306;9.830;2023-02-28T16:09:59;0.40;;;0.40;;
21634;SDS011;10979;48.306;9.830;2023-02-28T16:12:32;0.40;;;0.40;;
21634;SDS011;10979;48.306;9.830;2023-02-28T16:15:00;0.40;;;0.40;;
21634;SDS011;10979;48.306;9.830;2023-02-28T16:17:31;0.40;;;0.40;;
21634;SDS011;10979;48.306;9.830;2023-02-28T16:19:59;0.40;;;0.40;;
21634;SDS011;10979;48.306;9.830;2023-02-28T16:22:25;0.40;;;0.40;;
21634;SDS011;10979;48.306;9.830;2023-02-28T16:24:51;0.40;;;0.40;;
21634;SDS011;10979;48.306;9.830;2023-02-28T16:27:20;0.40;;;0.40;;
21634;SDS011;10979;48.306;9.830;2023-02-28T16:29:51;0.40;;;0.40;;
21634;SDS011;10979;48.306;9.830;2023-02-28T16:32:18;0.40;;;0.40;;
21634;SDS011;10979;48.306;9.830;2023-02-28T16:34:44;0.40;;;0.40;;
21634;SDS011;10979;48.306;9.830;2023-02-28T16:37:11;0.40;;;0.40;;
21634;SDS011;10979;48.306;9.830;2023-02-28T16:39:38;0.40;;;0.40;;
21634;SDS011;10979;48.306;9.830;2023-02-28T16:42:04;0.40;;;0.40;;
21634;SDS011;10979;48.306;9.830;2023-02-28T16:44:31;0.40;;;0.40;;
21634;SDS011;10979;48.306;9.830;2023-02-28T16:46:59;0.40;;;0.40;;
21634;SDS011;10979;48.306;9.830;2023-02-28T16:49:26;0.40;;;0.40;;
21634;SDS011;10979;48.306;9.830;2023-02-28T16:51:51;0.40;;;0.40;;
21634;SDS011;10979;48.306;9.830;2023-02-28T16:54:17;0.40;;;0.40;;
21634;SDS011;10979;48.306;9.830;2023-02-28T16:56:44;0.40;;;0.40;;
21634;SDS011;10979;48.306;9.830;2023-02-28T16:59:12;0.40;;;0.40;;
21634;SDS011;10979;48.306;9.830;2023-02-28T17:01:38;0.40;;;0.40;;
21634;SDS011;10979;48.306;9.830;2023-02-28T17:04:04;0.40;;;0.40;;
21634;SDS011;10979;48.306;9.830;2023-02-28T17:06:29;0.40;;;0.40;;
21634;SDS011;10979;48.306;9.830;2023-02-28T17:08:56;0.40;;;0.40;;
21634;SDS011;10979;48.306;9.830;2023-02-28T17:11:23;0.40;;;0.40;;
21634;SDS011;10979;48.306;9.830;2023-02-28T17:13:49;0.40;;;0.40;;
21634;SDS011;10979;48.306;9.830;2023-02-28T17:18:53;0.50;;;0.50;;
21634;SDS011;10979;48.306;9.830;2023-02-28T17:21:21;0.47;;;0.47;;
21634;SDS011;10979;48.306;9.830;2023-02-28T17:23:47;0.40;;;0.40;;
21634;SDS011;10979;48.306;9.830;2023-02-28T17:26:13;0.40;;;0.40;;
21634;SDS011;10979;48.306;9.830;2023-02-28T17:28:41;0.40;;;0.40;;
21634;SDS011;10979;48.306;9.830;2023-02-28T17:31:07;0.40;;;0.40;;
21634;SDS011;10979;48.306;9.830;2023-02-28T17:33:33;0.40;;;0.40;;
21634;SDS011;10979;48.306;9.830;2023-02-28T17:35:58;0.50;;;0.50;;
21634;SDS011;10979;48.306;9.830;2023-02-28T17:38:24;0.50;;;0.50;;